Leesburg, AL (35983)

11:43 AM CDT on July 29, 2016 (GMT -0500)
Chigger Farms/Weiss Lake | | Change Station

Elev 571 ft 34.19 °N, 85.74 °W | Updated 16 seconds ago

Scattered Clouds
Scattered Clouds
84.0 °F
Feels Like 91 °F
N
8.3
Wind Variable Wind from SW
Gusts 9.8 mph

Today
High -- | Low -- °F
--% Chance of Precip.
Yesterday
High -- | Low -- °F
Precip. -- in
Pressure 30.03 in
Visibility 10.0 miles
Clouds Scattered Clouds 2800 ft
Scattered Clouds 3300 ft
Scattered Clouds 3900 ft
Heat Index 91 °F
Dew Point 74 °F
Humidity 71%
Rainfall 0.00 in
Snow Depth Not available.
5:52 AM 7:46 PM
Waning Crescent, 21% visible
METAR K4A9 291635Z AUTO 24008KT 10SM SCT028 SCT033 SCT039 28/20 A3003 RMK AO2
Pressure 30.03 in
Visibility 10.0 miles
Clouds Scattered Clouds 2800 ft
Scattered Clouds 3300 ft
Scattered Clouds 3900 ft
Heat Index 91 °F
Dew Point 74 °F
Humidity 71%
Rainfall 0.00 in
Snow Depth Not available.
5:52 AM 7:46 PM
Waning Crescent, 21% visible
METAR K4A9 291635Z AUTO 24008KT 10SM SCT028 SCT033 SCT039 28/20 A3003 RMK AO2

10-Day Weather Forecast

Almanac

Astronomy

Jul. 29, 2016 Rise Set
Actual Time
Civil Twilight
Nautical Twilight
Astronomical Twilight
Moon
Length of Visible Light
Length of Day
Tomorrow will be .
, % of the Moon is Illuminated

Today's Extremes

State Highs State Lows

Community

WunderPhotos

Upload Photos

1,928,378 photos uploaded!

WunderBlog® & News

Nearby

Air Quality

  Air Quality AQ Index Pollutant
Not available.

Snow Depth

Station Depth Elevation

Earthquake Activity

City Distance Mag. Time & Date
Minimum magnitude displayed is 2.5.

Coastal Water Temperatures

Place Temperature

Stations

Nearby Weather Stations

Station Location Temp. Windchill Dew Point Humidity Wind Precip. Elev Updated Type
                   

Watches & Warnings

There are currently no watches in effect.